Time;durP1;ratioP1;P1;durP2;ratioP2;P2;SDS_P1;SDS_P2;PMS_P1;PMS_P2;Temp;Humidity;BMP_temperature;BMP_pressure;BME280_temperature;BME280_humidity;BME280_pressure;Samples;Min_cycle;Max_cycle;Signal;HPM_P1;HPM_P2
2023/06/20 00:02:48;;;;;;;8.30;5.78;;;;;21.90;100604.00;;;;10237055;28;20315;-78
2023/06/20 00:07:50;;;;;;;7.32;5.25;;;;;21.90;100598.00;;;;10230452;28;20260;-77
2023/06/20 00:12:52;;;;;;;7.13;5.50;;;;;21.90;100603.00;;;;10224811;28;20234;-77
2023/06/20 00:18:01;;;;;;;9.52;6.05;;;;;21.90;100596.00;;;;10230150;28;20205;-76
2023/06/20 00:23:03;;;;;;;6.35;5.75;;;;;21.80;100596.00;;;;10238609;28;20552;-78
2023/06/20 00:28:06;;;;;;;7.75;5.75;;;;;21.70;100594.00;;;;10237508;28;20232;-77
2023/06/20 00:33:08;;;;;;;9.30;5.55;;;;;21.70;100583.00;;;;10222427;28;20233;-77
2023/06/20 00:38:10;;;;;;;6.75;6.00;;;;;21.60;100586.00;;;;10238946;28;20344;-75
2023/06/20 00:43:13;;;;;;;10.00;6.22;;;;;21.60;100596.00;;;;10237650;28;20206;-77
2023/06/20 00:48:15;;;;;;;11.75;6.75;;;;;21.50;100592.00;;;;10237370;28;20261;-76
2023/06/20 00:53:17;;;;;;;7.25;5.80;;;;;21.50;100587.00;;;;10239794;28;20202;-78
2023/06/20 00:58:19;;;;;;;9.40;6.43;;;;;21.40;100574.00;;;;10235020;28;20526;-75
2023/06/20 01:03:22;;;;;;;10.52;7.13;;;;;21.30;100573.00;;;;10237064;28;20228;-78
2023/06/20 01:08:43;;;;;;;10.02;7.10;;;;;21.20;100560.00;;;;10225548;28;20213;-75
2023/06/20 01:13:50;;;;;;;12.05;7.75;;;;;21.10;100553.00;;;;10223075;28;20271;-75
2023/06/20 01:19:17;;;;;;;10.55;7.82;;;;;20.90;100559.00;;;;10235375;28;20201;-76
2023/06/20 01:24:58;;;;;;;13.27;7.07;;;;;20.70;100566.00;;;;10207071;28;20672;-75
2023/06/20 01:30:08;;;;;;;8.13;6.85;;;;;20.50;100567.00;;;;10233331;28;20209;-77
2023/06/20 01:35:14;;;;;;;14.00;7.63;;;;;20.40;100560.00;;;;10245293;28;20205;-77
2023/06/20 01:40:22;;;;;;;12.95;8.32;;;;;20.30;100555.00;;;;10243526;28;20201;-77
2023/06/20 01:45:27;;;;;;;10.10;7.32;;;;;20.20;100559.00;;;;10240790;28;20241;-77
2023/06/20 01:50:31;;;;;;;10.20;8.25;;;;;20.10;100561.00;;;;10216605;28;20264;-78
2023/06/20 01:55:34;;;;;;;9.85;8.00;;;;;19.90;100557.00;;;;10242662;28;20587;-78
2023/06/20 02:00:37;;;;;;;11.60;7.43;;;;;19.80;100557.00;;;;10222147;28;20783;-75
2023/06/20 02:05:41;;;;;;;10.85;7.95;;;;;19.80;100559.00;;;;10225976;28;20232;-76
2023/06/20 02:10:44;;;;;;;11.32;7.93;;;;;19.70;100547.00;;;;10226271;28;20201;-75
2023/06/20 02:15:48;;;;;;;8.82;7.32;;;;;19.70;100536.00;;;;10233440;28;20217;-75
2023/06/20 02:20:54;;;;;;;9.90;7.78;;;;;19.70;100540.00;;;;10241117;28;20288;-76
2023/06/20 02:26:07;;;;;;;9.55;8.25;;;;;19.70;100544.00;;;;10230082;28;20194;-76
2023/06/20 02:31:15;;;;;;;13.35;8.80;;;;;19.70;100540.00;;;;10222932;28;20289;-75
2023/06/20 02:36:20;;;;;;;12.18;8.23;;;;;19.70;100554.00;;;;10225132;28;20937;-75
2023/06/20 02:41:23;;;;;;;13.38;8.52;;;;;19.60;100549.00;;;;10241370;28;20197;-78
2023/06/20 02:47:11;;;;;;;9.85;7.93;;;;;19.60;100552.00;;;;10223837;28;20563;-75
2023/06/20 02:52:50;;;;;;;11.00;8.30;;;;;19.60;100561.00;;;;10203232;28;20639;-76
2023/06/20 02:57:56;;;;;;;10.65;7.93;;;;;19.70;100578.00;;;;10241556;28;20231;-78
2023/06/20 03:03:18;;;;;;;9.45;7.80;;;;;19.80;100573.00;;;;10240458;28;20324;-78
2023/06/20 03:08:21;;;;;;;8.23;7.43;;;;;19.80;100569.00;;;;10222146;28;20206;-78
2023/06/20 03:13:24;;;;;;;8.95;7.93;;;;;19.70;100568.00;;;;10230353;28;20205;-78
2023/06/20 03:18:29;;;;;;;8.57;7.18;;;;;19.70;100582.00;;;;10224339;28;20229;-77
2023/06/20 03:23:32;;;;;;;10.15;7.35;;;;;19.70;100580.00;;;;10222207;28;20700;-75
2023/06/20 03:28:34;;;;;;;9.82;7.20;;;;;19.60;100593.00;;;;10239732;28;20217;-75
2023/06/20 03:33:36;;;;;;;9.20;7.78;;;;;19.50;100605.00;;;;10232934;28;20213;-77
2023/06/20 03:38:40;;;;;;;10.32;7.25;;;;;19.50;100581.00;;;;10238671;28;20759;-78
2023/06/20 03:43:42;;;;;;;10.30;7.00;;;;;19.50;100576.00;;;;10219359;28;20209;-78
2023/06/20 03:48:44;;;;;;;13.77;7.60;;;;;19.60;100572.00;;;;10205211;28;20449;-78
2023/06/20 03:53:47;;;;;;;8.20;6.93;;;;;19.70;100570.00;;;;10221240;28;20232;-78
2023/06/20 03:58:49;;;;;;;8.30;7.20;;;;;19.80;100570.00;;;;10202416;28;20857;-77
2023/06/20 04:03:54;;;;;;;8.40;6.55;;;;;19.80;100569.00;;;;10213727;28;20209;-76
2023/06/20 04:08:58;;;;;;;8.35;6.88;;;;;19.90;100571.00;;;;10222181;28;20260;-79
2023/06/20 04:14:00;;;;;;;11.50;7.25;;;;;20.00;100571.00;;;;10239450;28;20206;-77
2023/06/20 04:19:02;;;;;;;10.65;6.85;;;;;20.00;100564.00;;;;10221598;28;20225;-78
2023/06/20 04:24:04;;;;;;;9.95;7.38;;;;;20.00;100554.00;;;;10236463;28;20617;-76
2023/06/20 04:29:07;;;;;;;8.48;7.18;;;;;20.00;100549.00;;;;10237616;28;20197;-78
2023/06/20 04:34:12;;;;;;;8.25;7.05;;;;;20.10;100544.00;;;;10237249;28;20209;-77
2023/06/20 04:39:14;;;;;;;8.73;6.88;;;;;20.20;100541.00;;;;10236956;28;20415;-77
2023/06/20 04:44:16;;;;;;;7.13;6.43;;;;;20.60;100533.00;;;;10236453;28;20209;-77
2023/06/20 04:49:20;;;;;;;9.20;6.57;;;;;20.90;100530.00;;;;10212722;28;20709;-77
2023/06/20 04:54:24;;;;;;;8.80;6.50;;;;;21.20;100550.00;;;;10215673;28;20201;-77
2023/06/20 04:59:26;;;;;;;6.85;6.22;;;;;21.50;100554.00;;;;10238517;28;20271;-77
2023/06/20 05:04:29;;;;;;;8.52;6.85;;;;;21.50;100562.00;;;;10240597;28;20233;-77
2023/06/20 05:09:31;;;;;;;9.57;6.88;;;;;21.50;100561.00;;;;10243533;28;20205;-77
2023/06/20 05:14:34;;;;;;;7.63;6.10;;;;;21.60;100562.00;;;;10246674;28;20622;-77
2023/06/20 05:19:36;;;;;;;6.90;5.82;;;;;21.80;100545.00;;;;10247284;28;20593;-78
2023/06/20 05:24:38;;;;;;;7.45;6.20;;;;;22.00;100550.00;;;;10253824;28;20284;-84
2023/06/20 05:29:41;;;;;;;7.38;5.72;;;;;22.40;100549.00;;;;10223770;29;20572;-78
2023/06/20 05:34:44;;;;;;;5.53;4.97;;;;;22.90;100554.00;;;;10230202;28;20201;-81
2023/06/20 05:39:46;;;;;;;6.05;5.43;;;;;23.50;100547.00;;;;10247771;28;20342;-78
2023/06/20 05:44:48;;;;;;;6.80;4.50;;;;;24.00;100547.00;;;;10235430;28;20225;-80
2023/06/20 05:49:50;;;;;;;6.45;4.30;;;;;24.20;100547.00;;;;10249186;28;20292;-81
2023/06/20 05:54:53;;;;;;;5.28;4.65;;;;;24.70;100557.00;;;;10209854;28;20277;-77
2023/06/20 05:59:56;;;;;;;5.03;4.30;;;;;25.10;100553.00;;;;10217199;28;20629;-78
2023/06/20 06:04:58;;;;;;;4.70;3.65;;;;;25.50;100539.00;;;;10228718;28;20328;-79
2023/06/20 06:10:01;;;;;;;7.40;3.83;;;;;25.90;100533.00;;;;10235988;28;20568;-77
2023/06/20 06:15:04;;;;;;;3.83;3.35;;;;;26.20;100529.00;;;;10244504;28;20264;-78
2023/06/20 06:20:11;;;;;;;3.85;3.38;;;;;26.20;100526.00;;;;10205786;28;20215;-84
2023/06/20 06:25:13;;;;;;;4.85;3.40;;;;;26.10;100512.00;;;;10234494;28;20665;-84
2023/06/20 06:30:15;;;;;;;6.18;3.42;;;;;26.60;100508.00;;;;10252902;28;20734;-83
2023/06/20 06:35:18;;;;;;;3.92;3.10;;;;;27.00;100512.00;;;;10249585;28;20205;-85
2023/06/20 06:40:20;;;;;;;5.68;3.30;;;;;27.20;100513.00;;;;10252428;28;20229;-80
2023/06/20 06:45:23;;;;;;;6.30;3.88;;;;;27.50;100507.00;;;;10242568;28;20201;-84
2023/06/20 06:50:25;;;;;;;4.03;3.40;;;;;27.40;100500.00;;;;10254560;28;20233;-78
2023/06/20 06:55:28;;;;;;;3.75;3.45;;;;;27.80;100502.00;;;;10243853;28;20193;-78
2023/06/20 07:00:31;;;;;;;4.22;3.70;;;;;27.90;100505.00;;;;10222915;28;20237;-81
2023/06/20 07:05:34;;;;;;;4.28;3.50;;;;;28.30;100500.00;;;;10234255;28;20217;-81
2023/06/20 07:10:36;;;;;;;3.60;3.30;;;;;28.80;100504.00;;;;10234767;28;20249;-81
2023/06/20 07:15:38;;;;;;;3.92;3.10;;;;;29.50;100503.00;;;;10222845;28;20226;-81
2023/06/20 07:20:40;;;;;;;6.65;3.50;;;;;30.10;100499.00;;;;10240001;28;20276;-81
2023/06/20 07:25:42;;;;;;;5.47;3.72;;;;;30.10;100505.00;;;;10233054;28;20513;-81
2023/06/20 07:30:45;;;;;;;3.88;3.25;;;;;30.40;100512.00;;;;10245371;28;20259;-81
2023/06/20 07:35:47;;;;;;;3.67;3.03;;;;;30.70;100515.00;;;;10243768;28;20581;-81
2023/06/20 07:40:49;;;;;;;3.13;2.80;;;;;31.00;100524.00;;;;10241555;28;20201;-81
2023/06/20 07:45:52;;;;;;;4.00;3.30;;;;;31.00;100518.00;;;;10220554;28;20203;-83
2023/06/20 07:50:54;;;;;;;4.97;3.30;;;;;31.00;100521.00;;;;10220887;28;20206;-81
2023/06/20 07:55:59;;;;;;;6.30;3.35;;;;;31.10;100529.00;;;;10217453;28;20314;-79
2023/06/20 08:01:01;;;;;;;2.95;2.75;;;;;31.30;100522.00;;;;10193338;28;20260;-77
2023/06/20 08:06:04;;;;;;;3.88;3.22;;;;;31.70;100507.00;;;;10236403;28;20216;-83
2023/06/20 08:11:06;;;;;;;4.45;3.20;;;;;32.00;100514.00;;;;10233005;28;20310;-80
2023/06/20 08:16:08;;;;;;;4.80;3.28;;;;;32.60;100511.00;;;;10243394;28;20225;-84
2023/06/20 08:21:12;;;;;;;3.70;2.92;;;;;33.10;100514.00;;;;10245309;28;20575;-78
2023/06/20 08:26:14;;;;;;;3.88;3.45;;;;;33.10;100516.00;;;;10226113;28;20557;-77
2023/06/20 08:31:16;;;;;;;3.03;2.72;;;;;33.10;100508.00;;;;10214965;28;20750;-77
2023/06/20 08:36:20;;;;;;;4.45;3.10;;;;;33.20;100509.00;;;;10239313;28;20271;-85
2023/06/20 08:41:25;;;;;;;4.18;2.90;;;;;33.30;100505.00;;;;10242344;28;20190;-77
2023/06/20 08:46:28;;;;;;;2.88;2.58;;;;;33.80;100498.00;;;;10228919;28;20316;-80
2023/06/20 08:51:32;;;;;;;5.45;2.95;;;;;34.00;100502.00;;;;10208610;28;20201;-78
2023/06/20 08:56:34;;;;;;;3.03;2.63;;;;;34.40;100511.00;;;;10235830;28;20293;-77
2023/06/20 09:01:36;;;;;;;4.18;2.63;;;;;35.00;100499.00;;;;10236656;28;20217;-79
2023/06/20 09:06:38;;;;;;;3.28;2.80;;;;;34.90;100497.00;;;;10212753;28;20226;-79
2023/06/20 09:11:47;;;;;;;3.13;2.80;;;;;34.90;100499.00;;;;10223584;28;20205;-78
2023/06/20 09:16:49;;;;;;;3.88;2.80;;;;;35.10;100491.00;;;;10238761;28;20202;-79
2023/06/20 09:22:02;;;;;;;2.60;2.40;;;;;35.20;100488.00;;;;10236528;28;20316;-76
2023/06/20 09:27:14;;;;;;;5.88;2.72;;;;;35.40;100491.00;;;;10237605;28;20454;-76
2023/06/20 09:32:20;;;;;;;5.75;2.70;;;;;35.90;100491.00;;;;10238480;28;20213;-84
2023/06/20 09:37:26;;;;;;;3.50;2.55;;;;;36.10;100484.00;;;;10597311;23;21538;-82
2023/06/20 09:42:28;;;;;;;2.60;2.40;;;;;36.10;100484.00;;;;10896635;23;20214;-76
2023/06/20 09:47:30;;;;;;;2.65;2.45;;;;;36.60;100482.00;;;;10211097;28;20219;-78
2023/06/20 09:52:39;;;;;;;3.15;2.40;;;;;36.50;100470.00;;;;10221578;28;20549;-79
2023/06/20 09:57:43;;;;;;;2.30;2.15;;;;;36.60;100467.00;;;;10245084;28;20209;-82
2023/06/20 10:08:31;;;;;;;3.13;2.50;;;;;37.20;100452.00;;;;11088334;23;20255;-74
2023/06/20 10:13:34;;;;;;;4.53;2.78;;;;;37.00;100470.00;;;;10280987;28;20740;-77
2023/06/20 10:35:31;;;;;;;6.22;3.42;;;;;37.40;100450.00;;;;10206167;29;20591;-83
2023/06/20 10:40:35;;;;;;;2.40;2.15;;;;;36.70;100427.00;;;;10169065;29;20544;-77
2023/06/20 10:45:51;;;;;;;6.13;2.53;;;;;37.90;100433.00;;;;10216506;28;20261;-77
2023/06/20 10:51:00;;;;;;;4.22;2.80;;;;;36.10;100419.00;;;;10202386;29;20202;-76
2023/06/20 10:56:02;;;;;;;3.88;2.80;;;;;37.30;100405.00;;;;10218285;29;20205;-83
2023/06/20 11:01:04;;;;;;;3.80;2.90;;;;;38.00;100403.00;;;;10220240;28;20261;-82
2023/06/20 11:06:06;;;;;;;3.30;3.00;;;;;38.70;100401.00;;;;10236482;28;20279;-77
2023/06/20 11:11:08;;;;;;;3.33;3.03;;;;;39.20;100402.00;;;;10220489;28;20201;-78
2023/06/20 11:16:20;;;;;;;3.20;2.75;;;;;39.00;100409.00;;;;10255978;28;20600;-75
2023/06/20 11:21:22;;;;;;;4.07;3.22;;;;;38.60;100408.00;;;;10258682;28;20200;-77
2023/06/20 11:26:49;;;;;;;4.05;3.40;;;;;38.50;100411.00;;;;10661638;23;21371;31
2023/06/20 11:32:08;;;;;;;4.95;3.60;;;;;37.50;100410.00;;;;11575657;23;20207;-79
2023/06/20 11:37:13;;;;;;;3.35;3.05;;;;;38.20;100394.00;;;;11506503;23;20232;31
2023/06/20 11:42:16;;;;;;;5.43;3.00;;;;;38.90;100411.00;;;;10481062;23;20266;-73
2023/06/20 11:47:18;;;;;;;3.13;2.83;;;;;39.60;100406.00;;;;10231340;28;20221;-75
2023/06/20 11:52:28;;;;;;;3.38;3.08;;;;;39.30;100393.00;;;;10225208;28;20197;-75
2023/06/20 11:57:31;;;;;;;3.28;2.97;;;;;40.10;100398.00;;;;10214141;28;20213;-75
2023/06/20 12:02:38;;;;;;;3.40;3.10;;;;;40.40;100412.00;;;;10224444;28;20609;-75
2023/06/20 12:07:52;;;;;;;4.22;2.95;;;;;40.80;100395.00;;;;10232008;28;20228;-75
2023/06/20 12:12:55;;;;;;;3.20;2.95;;;;;39.90;100411.00;;;;10215887;28;20213;-77
2023/06/20 12:17:58;;;;;;;2.92;2.70;;;;;40.80;100397.00;;;;10224763;28;20320;-77
2023/06/20 12:23:00;;;;;;;4.00;3.10;;;;;40.10;100393.00;;;;10213975;28;20978;-78
2023/06/20 12:28:03;;;;;;;4.18;2.83;;;;;39.70;100395.00;;;;10218846;28;20590;-78
2023/06/20 12:33:09;;;;;;;4.65;2.70;;;;;38.50;100381.00;;;;10209466;28;20197;-76
2023/06/20 12:38:11;;;;;;;3.67;3.10;;;;;37.80;100375.00;;;;10214306;28;20205;-76
2023/06/20 12:43:13;;;;;;;3.95;2.80;;;;;39.00;100357.00;;;;10224196;28;20386;-79
2023/06/20 12:48:16;;;;;;;4.70;2.90;;;;;39.10;100365.00;;;;10238126;28;20553;-78
2023/06/20 12:53:18;;;;;;;3.70;2.75;;;;;38.50;100359.00;;;;10232139;28;20201;-78
2023/06/20 12:58:20;;;;;;;3.85;2.88;;;;;37.80;100346.00;;;;10235975;28;20209;-76
2023/06/20 13:03:22;;;;;;;4.57;2.83;;;;;38.80;100349.00;;;;10220133;28;20226;-78
2023/06/20 13:08:26;;;;;;;4.25;2.85;;;;;38.40;100356.00;;;;10197560;29;20214;-77
2023/06/20 13:13:28;;;;;;;4.75;3.05;;;;;37.30;100366.00;;;;10177726;28;20205;-78
2023/06/20 13:18:30;;;;;;;2.95;2.70;;;;;36.40;100357.00;;;;10196897;29;20205;-77
2023/06/20 13:23:32;;;;;;;4.10;2.80;;;;;35.80;100354.00;;;;10198651;29;20253;-78
2023/06/20 13:28:34;;;;;;;2.88;2.58;;;;;35.70;100368.00;;;;10206449;29;20214;-77
2023/06/20 13:33:36;;;;;;;3.28;2.70;;;;;35.50;100370.00;;;;10205819;29;20220;-78
2023/06/20 13:38:38;;;;;;;6.32;3.15;;;;;35.00;100367.00;;;;10175236;29;20855;-78
2023/06/20 13:43:40;;;;;;;2.40;2.20;;;;;34.00;100368.00;;;;10199180;29;20455;-78
2023/06/20 13:48:42;;;;;;;5.93;3.17;;;;;33.20;100377.00;;;;10194771;29;20289;-76
2023/06/20 13:53:45;;;;;;;4.10;3.47;;;;;32.80;100370.00;;;;10206522;29;20429;-77
2023/06/20 13:58:47;;;;;;;4.63;3.90;;;;;32.70;100362.00;;;;10200296;29;20202;-75
2023/06/20 14:03:50;;;;;;;5.53;2.90;;;;;32.40;100366.00;;;;10203157;29;20226;-87
2023/06/20 14:08:52;;;;;;;4.00;3.53;;;;;32.20;100354.00;;;;10216240;29;20262;-81
2023/06/20 14:13:54;;;;;;;3.78;3.35;;;;;31.70;100352.00;;;;10199357;29;20210;-74
2023/06/20 14:18:56;;;;;;;3.72;3.42;;;;;31.20;100356.00;;;;10207746;29;20242;-83
2023/06/20 14:24:00;;;;;;;3.92;3.45;;;;;31.30;100361.00;;;;10206632;29;20309;-79
2023/06/20 14:29:02;;;;;;;3.92;3.47;;;;;31.10;100360.00;;;;10201821;28;20254;-76
2023/06/20 14:34:04;;;;;;;8.60;3.40;;;;;30.70;100356.00;;;;10204488;29;20283;-81
2023/06/20 14:39:06;;;;;;;5.18;3.75;;;;;30.10;100364.00;;;;10202039;29;20206;-75
2023/06/20 14:44:09;;;;;;;4.78;4.03;;;;;30.00;100358.00;;;;10195647;29;20209;-76
2023/06/20 14:49:11;;;;;;;4.30;3.28;;;;;30.00;100364.00;;;;10202634;29;20221;-77
2023/06/20 14:54:13;;;;;;;4.65;3.60;;;;;29.70;100367.00;;;;10204347;28;20664;-78
2023/06/20 14:59:15;;;;;;;5.53;3.30;;;;;29.40;100366.00;;;;10191663;29;20668;-80
2023/06/20 15:04:18;;;;;;;7.78;3.42;;;;;29.10;100366.00;;;;10202540;29;20224;-76
2023/06/20 15:09:21;;;;;;;6.00;3.78;;;;;29.20;100359.00;;;;10200388;29;20723;-77
2023/06/20 15:14:23;;;;;;;5.45;3.85;;;;;29.60;100363.00;;;;10191167;29;20217;-75
2023/06/20 15:19:26;;;;;;;8.02;4.03;;;;;30.00;100357.00;;;;10185038;29;20770;-76
2023/06/20 15:24:32;;;;;;;5.88;3.03;;;;;30.20;100360.00;;;;10194518;29;20620;-77
2023/06/20 15:29:34;;;;;;;5.85;3.95;;;;;30.80;100370.00;;;;10203732;29;20414;-81
2023/06/20 15:34:36;;;;;;;5.45;3.63;;;;;30.00;100362.00;;;;10207513;29;20291;-83
2023/06/20 15:39:38;;;;;;;6.88;3.75;;;;;29.80;100371.00;;;;10183839;29;20219;-75
2023/06/20 15:44:41;;;;;;;4.32;3.67;;;;;29.50;100384.00;;;;10201123;28;20214;-75
2023/06/20 15:49:43;;;;;;;4.90;3.90;;;;;29.30;100409.00;;;;10207793;29;20218;-82
2023/06/20 15:54:45;;;;;;;11.73;3.88;;;;;28.50;100437.00;;;;10202102;29;20208;-76
2023/06/20 15:59:49;;;;;;;4.57;2.53;;;;;26.60;100453.00;;;;10199478;29;20203;-76
2023/06/20 16:04:51;;;;;;;6.95;2.72;;;;;26.30;100423.00;;;;10209716;29;20682;-80
2023/06/20 16:09:54;;;;;;;8.02;3.05;;;;;26.70;100435.00;;;;10208457;29;20210;-87
2023/06/20 16:14:57;;;;;;;3.22;2.80;;;;;26.30;100441.00;;;;10192173;29;20210;-76
2023/06/20 16:20:00;;;;;;;4.72;2.65;;;;;26.10;100436.00;;;;10207432;29;20206;-81
2023/06/20 16:25:03;;;;;;;3.85;2.95;;;;;25.80;100435.00;;;;10188934;29;20363;-82
2023/06/20 16:30:06;;;;;;;3.60;3.30;;;;;25.40;100418.00;;;;10191432;29;20228;-73
2023/06/20 16:35:09;;;;;;;5.82;3.70;;;;;25.40;100419.00;;;;10194945;29;20645;-76
2023/06/20 16:40:12;;;;;;;5.20;3.70;;;;;25.40;100421.00;;;;10199315;29;20216;-80
2023/06/20 16:45:14;;;;;;;8.25;3.60;;;;;25.60;100421.00;;;;10181447;29;20241;-80
2023/06/20 16:50:19;;;;;;;5.72;3.33;;;;;26.00;100394.00;;;;10200246;29;20221;-78
2023/06/20 16:55:21;;;;;;;6.32;3.17;;;;;26.30;100413.00;;;;10177190;29;20198;-79
2023/06/20 17:00:23;;;;;;;7.20;3.70;;;;;26.10;100429.00;;;;10214833;28;20210;-78
2023/06/20 17:05:26;;;;;;;4.03;3.25;;;;;25.70;100453.00;;;;10195426;29;20278;-81
2023/06/20 17:10:28;;;;;;;3.95;3.13;;;;;24.80;100483.00;;;;10204736;29;20680;-80
2023/06/20 17:15:30;;;;;;;7.20;4.55;;;;;23.90;100508.00;;;;10208735;28;20700;-77
2023/06/20 17:20:33;;;;;;;6.18;4.55;;;;;23.50;100523.00;;;;10213325;28;20217;-76
2023/06/20 17:25:35;;;;;;;5.75;4.15;;;;;23.10;100530.00;;;;10202525;28;20629;-81
2023/06/20 17:30:37;;;;;;;6.35;3.42;;;;;22.60;100535.00;;;;10210713;28;20633;-82
2023/06/20 17:35:39;;;;;;;6.25;4.25;;;;;21.70;100560.00;;;;10166979;29;20237;-82
2023/06/20 17:40:41;;;;;;;6.82;3.88;;;;;20.80;100559.00;;;;10196847;29;20600;-76
2023/06/20 17:45:43;;;;;;;5.70;3.78;;;;;20.20;100626.00;;;;10177821;29;20209;-81
2023/06/20 17:50:45;;;;;;;4.18;3.75;;;;;20.20;100680.00;;;;10197758;29;20222;-81
2023/06/20 17:55:47;;;;;;;6.22;4.72;;;;;20.20;100671.00;;;;10185133;28;20434;-72
2023/06/20 18:00:49;;;;;;;6.95;4.40;;;;;20.00;100660.00;;;;10194980;28;20269;-76
2023/06/20 18:05:51;;;;;;;6.55;4.32;;;;;19.60;100636.00;;;;10195633;29;20285;-79
2023/06/20 18:10:53;;;;;;;8.48;5.22;;;;;19.40;100629.00;;;;10188549;29;20234;-78
2023/06/20 18:15:55;;;;;;;7.00;5.57;;;;;19.40;100645.00;;;;10193722;29;20225;-80
2023/06/20 18:20:58;;;;;;;6.18;4.82;;;;;19.40;100661.00;;;;10204430;29;20191;-79
2023/06/20 18:26:00;;;;;;;5.72;4.40;;;;;19.40;100664.00;;;;10208473;29;20385;-79
2023/06/20 18:31:02;;;;;;;6.47;4.82;;;;;19.40;100673.00;;;;10215485;29;20716;-84
2023/06/20 18:36:06;;;;;;;5.90;4.95;;;;;19.40;100681.00;;;;10207938;29;20209;-76
2023/06/20 18:41:08;;;;;;;11.98;5.10;;;;;19.30;100673.00;;;;10201554;29;20613;-83
2023/06/20 18:46:10;;;;;;;6.13;4.28;;;;;19.30;100676.00;;;;10202986;29;20585;-80
2023/06/20 18:51:12;;;;;;;5.65;4.68;;;;;19.30;100659.00;;;;10203072;29;20281;-83
2023/06/20 18:56:13;;;;;;;6.65;4.38;;;;;19.30;100656.00;;;;10207874;29;20210;-79
2023/06/20 19:01:19;;;;;;;8.02;5.07;;;;;19.30;100656.00;;;;10179628;29;20215;-75
2023/06/20 19:06:21;;;;;;;7.00;5.07;;;;;19.20;100657.00;;;;10193308;29;20246;-75
2023/06/20 19:11:23;;;;;;;10.10;7.32;;;;;19.10;100669.00;;;;10198388;29;20302;-74
2023/06/20 19:16:25;;;;;;;12.32;7.07;;;;;19.10;100670.00;;;;10192012;29;20210;-82
2023/06/20 19:21:27;;;;;;;10.93;6.32;;;;;19.00;100675.00;;;;10200811;29;20213;-73
2023/06/20 19:26:29;;;;;;;7.68;4.95;;;;;18.90;100656.00;;;;10192105;29;20199;-79
2023/06/20 19:31:38;;;;;;;6.18;4.75;;;;;18.90;100650.00;;;;10212613;28;20617;-78
2023/06/20 19:36:40;;;;;;;8.68;4.40;;;;;18.90;100665.00;;;;10198750;29;20656;-76
2023/06/20 19:41:42;;;;;;;5.93;4.43;;;;;18.80;100666.00;;;;10199478;29;20201;-79
2023/06/20 19:46:44;;;;;;;4.53;4.00;;;;;18.80;100659.00;;;;10188387;29;20804;-73
2023/06/20 19:51:46;;;;;;;5.35;4.78;;;;;18.80;100646.00;;;;10179550;29;20565;-74
2023/06/20 19:56:48;;;;;;;7.97;5.57;;;;;18.90;100648.00;;;;10206932;28;20202;-81
2023/06/20 20:01:53;;;;;;;10.45;5.30;;;;;18.80;100631.00;;;;10185682;28;20221;-79
2023/06/20 20:06:55;;;;;;;9.63;5.53;;;;;18.80;100634.00;;;;10171008;29;20407;-81
2023/06/20 20:11:58;;;;;;;7.55;5.90;;;;;18.70;100648.00;;;;10195882;29;20228;-73
2023/06/20 20:16:59;;;;;;;8.48;5.90;;;;;18.70;100661.00;;;;10193660;29;20210;-74
2023/06/20 20:22:02;;;;;;;8.23;5.40;;;;;18.70;100665.00;;;;10195412;29;20198;-80
2023/06/20 20:27:07;;;;;;;7.60;5.50;;;;;18.80;100667.00;;;;10196782;29;20201;-80
2023/06/20 20:32:09;;;;;;;11.35;6.30;;;;;18.80;100678.00;;;;10196882;29;20747;-73
2023/06/20 20:37:11;;;;;;;7.75;5.75;;;;;18.80;100697.00;;;;10195910;29;20257;-72
2023/06/20 20:42:13;;;;;;;8.32;6.05;;;;;18.70;100688.00;;;;10216646;28;20207;-80
2023/06/20 20:47:15;;;;;;;8.50;6.28;;;;;18.70;100703.00;;;;10209418;29;20308;-80
2023/06/20 20:52:17;;;;;;;10.05;6.45;;;;;18.70;100687.00;;;;10184838;29;20304;-78
2023/06/20 20:57:19;;;;;;;6.90;6.07;;;;;18.70;100690.00;;;;10194998;29;20225;-74
2023/06/20 21:02:21;;;;;;;9.35;6.45;;;;;18.70;100680.00;;;;10192028;29;20232;-81
2023/06/20 21:07:24;;;;;;;9.25;6.28;;;;;18.70;100694.00;;;;10210240;29;20301;-76
2023/06/20 21:12:26;;;;;;;11.05;7.18;;;;;18.60;100703.00;;;;10194084;29;20730;-74
2023/06/20 21:17:28;;;;;;;9.68;7.35;;;;;18.60;100701.00;;;;10193919;29;20660;-75
2023/06/20 21:22:30;;;;;;;8.07;6.85;;;;;18.60;100704.00;;;;10195995;29;20249;-75
2023/06/20 21:27:32;;;;;;;9.63;7.22;;;;;18.60;100692.00;;;;10196136;28;20609;-75
2023/06/20 21:32:34;;;;;;;14.80;7.20;;;;;18.60;100692.00;;;;10201987;29;20703;-74
2023/06/20 21:37:36;;;;;;;8.93;6.97;;;;;18.60;100712.00;;;;10196463;29;20248;-73
2023/06/20 21:42:38;;;;;;;9.35;7.35;;;;;18.60;100710.00;;;;10202535;29;20677;-77
2023/06/20 21:47:40;;;;;;;10.25;7.40;;;;;18.50;100696.00;;;;10206996;29;20224;-78
2023/06/20 21:52:42;;;;;;;8.70;7.20;;;;;18.50;100692.00;;;;10206978;29;20199;-78
2023/06/20 21:57:45;;;;;;;9.63;6.97;;;;;18.50;100676.00;;;;10193184;29;20277;-77
2023/06/20 22:02:48;;;;;;;10.60;7.53;;;;;18.40;100668.00;;;;10198539;29;20206;-78
2023/06/20 22:07:50;;;;;;;11.95;7.72;;;;;18.40;100671.00;;;;10206335;28;20285;-78
2023/06/20 22:12:52;;;;;;;9.35;8.32;;;;;18.40;100674.00;;;;10198585;29;20208;-78
2023/06/20 22:17:54;;;;;;;8.48;7.65;;;;;18.40;100675.00;;;;10206395;29;20242;-77
2023/06/20 22:22:56;;;;;;;10.50;8.60;;;;;18.30;100677.00;;;;10208486;29;20227;-76
2023/06/20 22:27:58;;;;;;;11.93;9.35;;;;;18.20;100694.00;;;;10212721;28;20233;-77
2023/06/20 22:33:02;;;;;;;11.68;9.35;;;;;18.20;100696.00;;;;10224323;29;20202;-79
2023/06/20 22:38:04;;;;;;;12.57;10.02;;;;;18.20;100714.00;;;;10211258;29;20325;-76
2023/06/20 22:43:06;;;;;;;10.38;9.38;;;;;18.20;100707.00;;;;10204059;29;20290;-75
2023/06/20 22:48:09;;;;;;;11.45;8.98;;;;;18.20;100705.00;;;;10207809;28;20221;-79
2023/06/20 22:53:12;;;;;;;9.85;8.38;;;;;18.10;100709.00;;;;10238133;28;20194;-79
2023/06/20 22:58:14;;;;;;;9.30;8.40;;;;;18.10;100715.00;;;;10175388;29;20214;-77
2023/06/20 23:03:17;;;;;;;11.52;9.43;;;;;18.10;100711.00;;;;10202993;29;20455;-75
2023/06/20 23:08:20;;;;;;;9.27;7.80;;;;;18.10;100718.00;;;;10199120;29;20224;-74
2023/06/20 23:13:22;;;;;;;10.45;8.70;;;;;18.00;100735.00;;;;10182806;29;20212;-80
2023/06/20 23:18:24;;;;;;;10.35;8.32;;;;;18.00;100737.00;;;;10198350;29;20217;-75
2023/06/20 23:23:26;;;;;;;12.93;9.13;;;;;18.00;100736.00;;;;10198619;29;20289;-74
2023/06/20 23:28:28;;;;;;;8.52;7.35;;;;;17.90;100726.00;;;;10196703;29;20202;-75
2023/06/20 23:33:31;;;;;;;9.27;8.27;;;;;17.90;100734.00;;;;10177555;29;20213;-73
2023/06/20 23:38:35;;;;;;;13.60;8.25;;;;;17.80;100729.00;;;;10181707;29;20233;-79
2023/06/20 23:43:37;;;;;;;9.27;8.30;;;;;17.80;100732.00;;;;10199054;29;20589;-80
2023/06/20 23:48:39;;;;;;;10.38;8.48;;;;;17.80;100737.00;;;;10192442;29;20214;-78
2023/06/20 23:53:43;;;;;;;8.57;7.68;;;;;17.80;100750.00;;;;10200138;29;20441;-79
2023/06/20 23:58:45;;;;;;;8.95;8.05;;;;;17.80;100724.00;;;;10165936;29;20548;-75
